createdAt,value
2019-02-07T00:00:21.967Z,47.20
2019-02-07T00:02:50.265Z,44.93
2019-02-07T00:05:18.570Z,49.77
2019-02-07T00:07:47.081Z,49.17
2019-02-07T00:10:20.570Z,43.70
2019-02-07T00:12:48.892Z,42.67
2019-02-07T00:15:17.350Z,43.07
2019-02-07T00:17:45.632Z,45.77
2019-02-07T00:20:16.559Z,46.93
2019-02-07T00:22:44.854Z,44.50
2019-02-07T00:25:13.280Z,40.30
2019-02-07T00:27:41.560Z,46.30
2019-02-07T00:30:20.675Z,40.83
2019-02-07T00:32:48.982Z,41.90
2019-02-07T00:35:17.940Z,43.53
2019-02-07T00:37:46.345Z,44.80
2019-02-07T00:40:16.572Z,40.30
2019-02-07T00:42:45.179Z,39.07
2019-02-07T00:45:19.426Z,42.90
2019-02-07T00:47:47.992Z,49.10
2019-02-07T00:50:17.543Z,41.17
2019-02-07T00:52:45.855Z,41.03
2019-02-07T00:55:18.464Z,46.80
2019-02-07T00:57:46.755Z,41.03
2019-02-07T01:00:23.831Z,39.50
2019-02-07T01:02:52.171Z,38.37
2019-02-07T01:05:22.245Z,47.83
2019-02-07T01:07:50.884Z,43.07
2019-02-07T01:10:25.252Z,48.33
2019-02-07T01:12:54.004Z,49.83
2019-02-07T01:15:22.423Z,42.57
2019-02-07T01:17:50.679Z,41.97
2019-02-07T01:20:18.972Z,45.47
2019-02-07T01:22:47.348Z,48.67
2019-02-07T01:25:18.385Z,47.67
2019-02-07T01:27:46.806Z,39.90
2019-02-07T01:30:21.122Z,45.23
2019-02-07T01:32:49.371Z,47.30
2019-02-07T01:35:18.454Z,49.97
2019-02-07T01:37:46.858Z,53.20
2019-02-07T01:40:19.492Z,51.90
2019-02-07T01:42:47.824Z,64.03
2019-02-07T01:45:23.558Z,50.23
2019-02-07T01:47:52.001Z,57.43
2019-02-07T01:50:22.957Z,53.60
2019-02-07T01:52:51.619Z,54.80
2019-02-07T01:55:19.884Z,53.73
2019-02-07T01:57:48.275Z,63.33
2019-02-07T02:00:18.083Z,56.83
2019-02-07T02:02:46.446Z,61.10
2019-02-07T02:05:16.145Z,53.30
2019-02-07T02:07:44.876Z,53.70
2019-02-07T02:10:16.017Z,54.30
2019-02-07T02:12:44.491Z,54.13
2019-02-07T02:15:23.709Z,55.93
2019-02-07T02:17:43.762Z,65.03
2019-02-07T02:20:14.527Z,51.50
2019-02-07T02:22:43.299Z,58.43
2019-02-07T02:25:13.365Z,51.53
2019-02-07T02:27:41.687Z,47.83
2019-02-07T02:30:16.269Z,58.93
2019-02-07T02:32:44.609Z,58.77
2019-02-07T02:35:12.939Z,58.03
2019-02-07T02:37:41.505Z,56.50
2019-02-07T02:40:11.420Z,59.90
2019-02-07T02:42:39.973Z,60.87
2019-02-07T02:45:14.267Z,56.10
2019-02-07T02:47:42.590Z,51.07
2019-02-07T02:50:13.900Z,52.63
2019-02-07T02:52:42.236Z,54.97
2019-02-07T02:55:12.208Z,56.70
2019-02-07T02:57:40.509Z,64.37
2019-02-07T03:00:16.122Z,52.53
2019-02-07T03:02:49.136Z,49.07
2019-02-07T03:05:22.149Z,49.73
2019-02-07T03:07:52.110Z,60.60
2019-02-07T03:10:24.752Z,56.00
2019-02-07T03:12:54.809Z,55.47
2019-02-07T03:15:49.225Z,59.40
2019-02-07T03:18:15.287Z,53.20
2019-02-07T03:20:57.252Z,57.13
2019-02-07T03:23:43.045Z,54.07
2019-02-07T03:26:27.170Z,52.43
2019-02-07T03:29:03.872Z,52.80
2019-02-07T03:31:38.474Z,49.30
2019-02-07T03:34:11.194Z,53.47
2019-02-07T03:36:41.174Z,46.13
2019-02-07T03:39:11.116Z,58.63
2019-02-07T03:41:49.978Z,52.20
2019-02-07T03:44:19.918Z,52.57
2019-02-07T03:46:52.807Z,50.97
2019-02-07T03:49:37.822Z,53.13
2019-02-07T03:52:07.719Z,43.50
2019-02-07T03:54:46.359Z,48.40
2019-02-07T03:57:21.898Z,44.40
2019-02-07T03:59:58.003Z,50.50
2019-02-07T04:02:30.524Z,47.63
2019-02-07T04:05:09.169Z,51.83
2019-02-07T04:07:54.126Z,43.47
2019-02-07T04:10:34.429Z,52.20
2019-02-07T04:13:19.462Z,48.97
2019-02-07T04:15:55.282Z,48.77
2019-02-07T04:18:34.745Z,55.00
2019-02-07T04:21:21.579Z,46.80
2019-02-07T04:23:56.676Z,41.67
2019-02-07T04:26:29.631Z,48.87
2019-02-07T04:29:03.048Z,45.40
2019-02-07T04:31:35.623Z,45.20
2019-02-07T04:34:05.594Z,41.37
2019-02-07T04:36:41.555Z,39.40
2019-02-07T04:39:11.474Z,45.87
2019-02-07T04:41:41.415Z,44.43
2019-02-07T04:44:20.185Z,36.90
2019-02-07T04:46:53.035Z,46.80
2019-02-07T04:49:31.982Z,41.10
2019-02-07T04:52:18.307Z,43.00
2019-02-07T04:54:51.426Z,48.30
2019-02-07T04:57:21.523Z,38.90
2019-02-07T04:59:57.831Z,42.50
2019-02-07T05:02:27.839Z,36.07
2019-02-07T05:05:07.564Z,39.80
2019-02-07T05:07:52.856Z,37.50
2019-02-07T05:10:22.895Z,34.73
2019-02-07T05:12:58.648Z,41.37
2019-02-07T05:15:28.665Z,40.17
2019-02-07T05:18:15.075Z,45.23
2019-02-07T05:20:48.095Z,44.57
2019-02-07T05:23:18.199Z,42.10
2019-02-07T05:25:53.908Z,42.20
2019-02-07T05:28:26.382Z,35.83
2019-02-07T05:30:59.047Z,33.83
2019-02-07T05:33:47.036Z,47.50
2019-02-07T05:36:32.935Z,27.77
2019-02-07T05:39:08.775Z,34.17
2019-02-07T05:41:38.858Z,32.17
2019-02-07T05:44:11.584Z,35.80
2019-02-07T05:46:50.709Z,40.93
2019-02-07T05:49:28.831Z,33.13
2019-02-07T05:52:04.747Z,34.03
2019-02-07T05:54:37.726Z,38.67
2019-02-07T05:57:07.704Z,33.00
2019-02-07T05:59:43.853Z,35.73
2019-02-07T06:02:16.378Z,36.17
2019-02-07T06:04:49.101Z,40.53
2019-02-07T06:07:24.971Z,33.03
2019-02-07T06:10:11.248Z,33.80
2019-02-07T06:12:57.538Z,30.67
2019-02-07T06:15:46.522Z,40.67
2019-02-07T06:18:28.510Z,38.47
2019-02-07T06:21:01.471Z,36.63
2019-02-07T06:23:43.516Z,31.00
2019-02-07T06:26:29.707Z,37.37
2019-02-07T06:29:08.729Z,41.27
2019-02-07T06:31:50.927Z,32.77
2019-02-07T06:34:31.161Z,32.40
2019-02-07T06:37:07.204Z,32.93
2019-02-07T06:39:37.289Z,33.70
2019-02-07T06:42:07.353Z,32.43
2019-02-07T06:44:37.382Z,38.60
2019-02-07T06:47:16.237Z,36.70
2019-02-07T06:49:46.402Z,33.20
2019-02-07T06:52:32.458Z,42.30
2019-02-07T06:55:04.834Z,38.13
2019-02-07T06:57:37.831Z,35.37
2019-02-07T07:00:11.128Z,35.03
2019-02-07T07:02:50.597Z,38.40
2019-02-07T07:05:38.621Z,31.43
2019-02-07T07:08:11.224Z,42.33
2019-02-07T07:10:45.653Z,39.10
2019-02-07T07:13:18.201Z,32.07
2019-02-07T07:15:53.982Z,33.60
2019-02-07T07:18:23.954Z,35.67
2019-02-07T07:21:10.076Z,37.93
2019-02-07T07:23:52.196Z,29.13
2019-02-07T07:26:28.199Z,33.90
2019-02-07T07:29:00.314Z,33.33
2019-02-07T07:31:48.405Z,32.37
2019-02-07T07:34:18.334Z,32.80
2019-02-07T07:36:48.515Z,30.43
2019-02-07T07:39:27.257Z,32.30
2019-02-07T07:42:09.533Z,33.43
2019-02-07T07:44:45.415Z,30.20
2019-02-07T07:47:36.051Z,29.47
2019-02-07T07:50:12.511Z,28.90
2019-02-07T07:52:57.427Z,25.83
2019-02-07T07:55:48.520Z,25.70
2019-02-07T07:58:21.462Z,25.40
2019-02-07T08:00:57.549Z,26.07
2019-02-07T08:03:31.017Z,26.30
2019-02-07T08:06:07.083Z,31.47
2019-02-07T08:08:54.183Z,28.07
2019-02-07T08:11:36.103Z,30.10
2019-02-07T08:14:10.792Z,23.20
2019-02-07T08:16:59.342Z,23.27
2019-02-07T08:19:38.170Z,24.23
2019-02-07T08:22:10.852Z,25.13
2019-02-07T08:24:46.545Z,18.47
2019-02-07T08:27:16.625Z,33.80
2019-02-07T08:29:46.551Z,21.23
2019-02-07T08:32:16.850Z,21.40
2019-02-07T08:34:49.614Z,21.37
2019-02-07T08:37:31.239Z,21.13
2019-02-07T08:40:10.358Z,23.80
2019-02-07T08:42:49.351Z,15.80
2019-02-07T08:45:21.912Z,17.97
2019-02-07T08:47:58.590Z,21.40
2019-02-07T08:50:39.978Z,17.73
2019-02-07T08:53:22.150Z,20.03
2019-02-07T08:55:52.059Z,17.80
2019-02-07T08:58:38.246Z,18.87
2019-02-07T09:01:16.921Z,19.43
2019-02-07T09:03:50.543Z,19.30
2019-02-07T09:06:26.763Z,21.30
2019-02-07T09:08:52.233Z,16.37
2019-02-07T09:11:39.697Z,15.43
2019-02-07T09:14:12.393Z,20.97
2019-02-07T09:16:45.249Z,18.33
2019-02-07T09:19:31.517Z,17.40
2019-02-07T09:22:16.509Z,15.60
2019-02-07T09:24:55.156Z,13.87
2019-02-07T09:27:25.149Z,18.57
2019-02-07T09:30:11.645Z,22.30
2019-02-07T09:32:57.531Z,18.40
2019-02-07T09:35:39.854Z,20.93
2019-02-07T09:38:09.860Z,12.03
2019-02-07T09:40:39.835Z,19.30
2019-02-07T09:43:25.592Z,12.07
2019-02-07T09:46:11.517Z,10.03
2019-02-07T09:48:58.192Z,12.30
2019-02-07T09:51:37.024Z,11.10
2019-02-07T09:54:07.176Z,13.20
2019-02-07T09:56:37.157Z,13.47
2019-02-07T09:59:18.768Z,19.17
2019-02-07T10:01:48.921Z,17.07
2019-02-07T10:04:21.714Z,14.27
2019-02-07T10:07:06.665Z,11.23
2019-02-07T10:09:52.637Z,20.37
2019-02-07T10:12:34.684Z,20.27
2019-02-07T10:15:10.592Z,10.10
2019-02-07T10:17:40.554Z,12.50
2019-02-07T10:20:27.510Z,19.80
2019-02-07T10:22:57.514Z,20.70
2019-02-07T10:25:27.560Z,20.47
2019-02-07T10:28:09.807Z,21.33
2019-02-07T10:30:48.657Z,7.63
2019-02-07T10:33:28.330Z,14.57
2019-02-07T10:36:01.145Z,22.07
2019-02-07T10:38:37.178Z,17.30
2019-02-07T10:41:13.576Z,25.23
2019-02-07T10:43:46.539Z,20.30
2019-02-07T10:46:25.402Z,14.10
2019-02-07T10:48:58.269Z,17.70
2019-02-07T10:51:30.731Z,8.57
2019-02-07T10:54:15.670Z,11.53
2019-02-07T10:56:45.606Z,26.80
2019-02-07T10:59:18.081Z,22.80
2019-02-07T11:01:51.017Z,22.60
2019-02-07T11:04:26.739Z,20.00
2019-02-07T11:06:56.664Z,14.23
2019-02-07T11:09:43.044Z,16.77
2019-02-07T11:12:18.702Z,14.50
2019-02-07T11:15:04.915Z,14.00
2019-02-07T11:17:41.346Z,12.77
2019-02-07T11:20:24.218Z,16.53
2019-02-07T11:22:54.216Z,8.70
2019-02-07T11:25:27.226Z,20.50
2019-02-07T11:28:10.895Z,11.67
2019-02-07T11:30:43.741Z,11.83
2019-02-07T11:33:26.132Z,7.43
2019-02-07T11:35:56.053Z,10.60
2019-02-07T11:38:34.989Z,20.70
2019-02-07T11:41:08.883Z,14.10
2019-02-07T11:43:50.935Z,9.73
2019-02-07T11:46:20.877Z,4.43
2019-02-07T11:49:06.922Z,17.30
2019-02-07T11:51:34.358Z,12.53
2019-02-07T11:54:13.458Z,12.23
2019-02-07T11:56:46.158Z,11.43
2019-02-07T11:59:16.118Z,19.00
2019-02-07T12:02:09.252Z,13.30
2019-02-07T12:04:35.831Z,11.17
2019-02-07T12:07:21.707Z,10.07
2019-02-07T12:09:51.616Z,13.23
2019-02-07T12:12:37.723Z,12.80
2019-02-07T12:15:10.826Z,8.73
2019-02-07T12:17:44.375Z,14.10
2019-02-07T12:20:20.671Z,10.27
2019-02-07T12:23:07.238Z,13.30
2019-02-07T12:25:46.775Z,7.27
2019-02-07T12:28:20.570Z,11.90
2019-02-07T12:30:51.587Z,17.20
2019-02-07T12:33:37.934Z,14.43
2019-02-07T12:36:08.189Z,14.43
2019-02-07T12:38:40.753Z,19.63
2019-02-07T12:41:10.678Z,15.37
2019-02-07T12:43:58.466Z,19.50
2019-02-07T12:46:28.559Z,14.43
2019-02-07T12:49:01.129Z,7.80
2019-02-07T12:51:47.645Z,9.70
2019-02-07T12:54:23.776Z,12.60
2019-02-07T12:57:05.102Z,7.60
2019-02-07T12:59:38.030Z,14.20
2019-02-07T13:02:13.701Z,18.80
2019-02-07T13:04:49.816Z,16.20
2019-02-07T13:07:36.312Z,13.47
2019-02-07T13:10:09.777Z,10.10
2019-02-07T13:12:51.630Z,7.13
2019-02-07T13:15:21.820Z,15.57
2019-02-07T13:17:52.275Z,10.23
2019-02-07T13:20:38.895Z,14.33
2019-02-07T13:23:17.860Z,11.03
2019-02-07T13:25:57.144Z,9.00
2019-02-07T13:28:40.278Z,11.00
2019-02-07T13:31:10.275Z,11.50
2019-02-07T13:33:59.080Z,9.70
2019-02-07T13:36:34.898Z,14.13
2019-02-07T13:39:19.906Z,13.10
2019-02-07T13:41:49.948Z,9.13
2019-02-07T13:44:28.899Z,11.17
2019-02-07T13:47:13.706Z,13.97
2019-02-07T13:49:51.692Z,6.00
2019-02-07T13:52:31.546Z,8.17
2019-02-07T13:55:17.477Z,8.37
2019-02-07T13:57:50.356Z,7.00
2019-02-07T14:00:36.989Z,10.90
2019-02-07T14:03:15.774Z,10.43
2019-02-07T14:05:54.556Z,16.33
2019-02-07T14:08:37.856Z,5.00
2019-02-07T14:10:58.825Z,10.17
2019-02-07T14:13:37.793Z,8.47
2019-02-07T14:16:10.270Z,10.83
2019-02-07T14:18:56.749Z,9.70
2019-02-07T14:21:26.710Z,7.53
2019-02-07T14:23:59.450Z,13.57
2019-02-07T14:26:32.255Z,5.73
2019-02-07T14:29:05.483Z,17.07
2019-02-07T14:31:35.403Z,9.70
2019-02-07T14:34:17.321Z,8.13
2019-02-07T14:36:47.216Z,4.00
2019-02-07T14:39:32.520Z,8.80
2019-02-07T14:42:08.128Z,5.63
2019-02-07T14:44:46.962Z,9.53
2019-02-07T14:47:15.276Z,9.87
2019-02-07T14:49:43.528Z,6.53
2019-02-07T14:52:12.027Z,11.87
2019-02-07T14:54:40.302Z,8.03
2019-02-07T14:57:08.584Z,7.63
2019-02-07T14:59:36.913Z,7.37
2019-02-07T15:02:05.197Z,9.77
2019-02-07T15:04:33.947Z,6.77
2019-02-07T15:07:02.245Z,7.23
2019-02-07T15:09:30.506Z,16.93
2019-02-07T15:11:58.826Z,7.53
2019-02-07T15:14:27.089Z,10.97
2019-02-07T15:16:55.409Z,10.87
2019-02-07T15:19:23.824Z,13.63
2019-02-07T15:21:52.249Z,12.83
2019-02-07T15:24:21.502Z,21.27
2019-02-07T15:26:49.791Z,9.17
2019-02-07T15:29:18.100Z,4.40
2019-02-07T15:31:46.636Z,9.00
2019-02-07T15:34:14.889Z,5.47
2019-02-07T15:36:43.342Z,5.37
2019-02-07T15:39:23.987Z,7.33
2019-02-07T15:41:58.624Z,10.57
2019-02-07T15:44:26.987Z,2.37
2019-02-07T15:46:55.475Z,7.53
2019-02-07T15:49:23.878Z,3.80
2019-02-07T15:51:52.155Z,7.87
2019-02-07T15:54:21.769Z,6.60
2019-02-07T15:56:50.161Z,7.00
2019-02-07T15:59:20.163Z,7.43
2019-02-07T16:01:53.290Z,7.50
2019-02-07T16:04:23.656Z,5.80
2019-02-07T16:06:52.067Z,4.70
2019-02-07T16:09:20.391Z,5.50
2019-02-07T16:11:51.745Z,10.20
2019-02-07T16:14:19.143Z,4.13
2019-02-07T16:16:47.460Z,4.40
2019-02-07T16:19:16.199Z,8.87
2019-02-07T16:21:46.573Z,8.97
2019-02-07T16:24:15.988Z,3.90
2019-02-07T16:26:44.599Z,5.47
2019-02-07T16:29:13.111Z,7.43
2019-02-07T16:31:41.479Z,9.33
2019-02-07T16:34:09.863Z,9.20
2019-02-07T16:36:38.168Z,11.47
2019-02-07T16:39:08.150Z,8.93
2019-02-07T16:41:36.467Z,7.13
2019-02-07T16:44:04.837Z,8.03
2019-02-07T16:46:33.349Z,2.07
2019-02-07T16:49:01.612Z,5.53
2019-02-07T16:51:30.042Z,5.00
2019-02-07T16:53:58.509Z,4.47
2019-02-07T16:56:27.430Z,5.73
2019-02-07T16:58:57.457Z,6.20
2019-02-07T17:01:25.698Z,5.60
2019-02-07T17:04:00.278Z,5.47
2019-02-07T17:09:21.571Z,5.30
2019-02-07T17:11:49.833Z,6.53
2019-02-07T17:14:18.222Z,2.70
2019-02-07T17:16:46.713Z,8.70
2019-02-07T17:19:14.949Z,2.27
2019-02-07T17:21:43.335Z,5.07
2019-02-07T17:24:11.637Z,6.50
2019-02-07T17:26:40.233Z,3.73
2019-02-07T17:29:08.510Z,3.20
2019-02-07T17:31:36.894Z,4.97
2019-02-07T17:34:05.182Z,6.57
2019-02-07T17:36:33.490Z,2.73
2019-02-07T17:39:02.249Z,5.70
2019-02-07T17:41:30.553Z,13.13
2019-02-07T17:43:58.877Z,8.70
2019-02-07T17:46:27.139Z,10.23
2019-02-07T17:48:55.678Z,7.73
2019-02-07T17:51:23.977Z,3.43
2019-02-07T17:53:52.807Z,12.40
2019-02-07T17:56:21.850Z,4.97
2019-02-07T17:58:50.239Z,7.93
2019-02-07T18:01:18.621Z,1.63
2019-02-07T18:03:46.922Z,2.40
2019-02-07T18:06:15.384Z,7.47
2019-02-07T18:08:43.643Z,3.13
2019-02-07T18:11:12.370Z,4.67
2019-02-07T18:13:40.678Z,1.33
2019-02-07T18:16:08.974Z,3.27
2019-02-07T18:18:37.243Z,1.23
2019-02-07T18:21:05.549Z,4.60
2019-02-07T18:23:33.825Z,3.60
2019-02-07T18:26:02.194Z,1.17
2019-02-07T18:28:30.465Z,2.50
2019-02-07T18:30:58.713Z,2.00
2019-02-07T18:33:27.110Z,2.33
2019-02-07T18:35:55.973Z,2.40
2019-02-07T18:38:24.553Z,2.40
2019-02-07T18:40:52.822Z,1.60
2019-02-07T18:43:21.229Z,3.43
2019-02-07T18:45:49.525Z,3.33
2019-02-07T18:48:17.833Z,5.43
2019-02-07T18:50:46.236Z,5.87
2019-02-07T18:53:14.651Z,9.33
2019-02-07T18:55:43.333Z,5.77
2019-02-07T18:58:11.595Z,4.30
2019-02-07T19:00:39.872Z,5.27
2019-02-07T19:03:08.830Z,4.10
2019-02-07T19:05:37.152Z,7.70
2019-02-07T19:08:06.235Z,4.87
2019-02-07T19:10:34.552Z,2.90
2019-02-07T19:13:02.846Z,4.13
2019-02-07T19:15:37.194Z,2.10
2019-02-07T19:18:05.603Z,3.70
2019-02-07T19:20:33.919Z,4.20
2019-02-07T19:23:02.398Z,4.13
2019-02-07T19:25:30.646Z,5.60
2019-02-07T19:27:59.317Z,3.33
2019-02-07T19:30:30.109Z,4.33
2019-02-07T19:32:58.434Z,2.10
2019-02-07T19:35:26.715Z,6.50
2019-02-07T19:37:54.973Z,3.90
2019-02-07T19:40:23.258Z,5.20
2019-02-07T19:42:51.694Z,2.63
2019-02-07T19:45:22.690Z,2.53
2019-02-07T19:47:50.968Z,5.07
2019-02-07T19:50:21.381Z,4.93
2019-02-07T19:52:50.060Z,10.30
2019-02-07T19:55:20.450Z,2.57
2019-02-07T19:57:48.767Z,5.90
2019-02-07T20:00:19.948Z,7.40
2019-02-07T20:02:48.204Z,5.80
2019-02-07T20:05:16.539Z,7.10
2019-02-07T20:07:44.954Z,6.83
2019-02-07T20:10:16.264Z,2.87
2019-02-07T20:12:44.663Z,3.73
2019-02-07T20:15:24.639Z,4.73
2019-02-07T20:17:52.954Z,4.93
2019-02-07T20:20:21.224Z,6.47
2019-02-07T20:22:49.556Z,8.60
2019-02-07T20:25:19.579Z,4.03
2019-02-07T20:27:47.927Z,3.07
2019-02-07T20:30:19.512Z,3.13
2019-02-07T20:32:47.871Z,3.10
2019-02-07T20:35:16.346Z,7.03
2019-02-07T20:37:44.652Z,4.67
2019-02-07T20:40:19.152Z,2.43
2019-02-07T20:42:47.598Z,1.20
2019-02-07T20:45:15.974Z,1.60
2019-02-07T20:47:44.402Z,2.30
2019-02-07T20:50:18.675Z,1.43
2019-02-07T20:52:47.071Z,5.73
2019-02-07T20:55:15.375Z,8.90
2019-02-07T20:57:43.950Z,7.87
2019-02-07T21:00:24.064Z,8.23
2019-02-07T21:02:52.322Z,7.20
2019-02-07T21:05:20.579Z,16.33
2019-02-07T21:07:48.951Z,8.43
2019-02-07T21:10:19.772Z,7.73
2019-02-07T21:12:48.166Z,7.30
2019-02-07T21:15:18.965Z,8.60
2019-02-07T21:17:48.059Z,7.93
2019-02-07T21:20:27.762Z,13.30
2019-02-07T21:22:56.735Z,3.90
2019-02-07T21:25:27.647Z,6.20
2019-02-07T21:27:56.012Z,3.43
2019-02-07T21:30:27.104Z,9.60
2019-02-07T21:32:55.470Z,10.03
2019-02-07T21:35:23.752Z,9.47
2019-02-07T21:37:52.198Z,6.40
2019-02-07T21:40:22.995Z,10.93
2019-02-07T21:42:53.215Z,6.50
2019-02-07T21:45:21.589Z,10.60
2019-02-07T21:47:50.278Z,14.83
2019-02-07T21:50:20.700Z,17.37
2019-02-07T21:52:49.619Z,15.43
2019-02-07T21:55:19.848Z,11.17
2019-02-07T21:57:48.111Z,13.43
2019-02-07T22:00:34.067Z,9.70
2019-02-07T22:03:02.359Z,5.80
2019-02-07T22:05:30.661Z,12.00
2019-02-07T22:07:58.928Z,17.37
2019-02-07T22:10:27.298Z,21.77
2019-02-07T22:12:55.612Z,15.23
2019-02-07T22:15:25.571Z,14.57
2019-02-07T22:17:53.935Z,11.43
2019-02-07T22:20:24.707Z,26.57
2019-02-07T22:22:53.025Z,5.10
2019-02-07T22:25:21.467Z,12.93
2019-02-07T22:27:49.842Z,16.30
2019-02-07T22:30:30.176Z,6.30
2019-02-07T22:32:58.659Z,8.80
2019-02-07T22:35:27.033Z,15.20
2019-02-07T22:37:55.310Z,12.50
2019-02-07T22:40:24.728Z,16.77
2019-02-07T22:42:53.061Z,13.93
2019-02-07T22:45:23.216Z,16.30
2019-02-07T22:47:51.617Z,11.87
2019-02-07T22:50:25.308Z,8.00
2019-02-07T22:52:57.065Z,13.73
2019-02-07T22:55:24.059Z,11.57
2019-02-07T22:57:53.342Z,6.73
2019-02-07T23:00:38.913Z,12.70
2019-02-07T23:03:15.590Z,8.20
2019-02-07T23:05:43.836Z,8.70
2019-02-07T23:08:12.332Z,6.40
2019-02-07T23:10:41.427Z,16.13
2019-02-07T23:13:09.847Z,16.50
2019-02-07T23:15:38.111Z,5.80
2019-02-07T23:18:08.038Z,10.83
2019-02-07T23:20:36.388Z,16.30
2019-02-07T23:23:07.543Z,18.23
2019-02-07T23:25:35.808Z,11.93
2019-02-07T23:28:04.206Z,6.90
2019-02-07T23:30:32.506Z,13.50
2019-02-07T23:33:00.767Z,12.77
2019-02-07T23:35:31.739Z,17.90
2019-02-07T23:38:00.096Z,14.33
2019-02-07T23:40:28.394Z,11.90
2019-02-07T23:42:57.086Z,20.57
2019-02-07T23:45:25.438Z,17.97
2019-02-07T23:47:53.717Z,22.37
2019-02-07T23:50:22.006Z,16.00
2019-02-07T23:52:50.255Z,9.80
2019-02-07T23:55:18.646Z,12.97
2019-02-07T23:57:46.998Z,17.90
